Time;durP1;ratioP1;P1;durP2;ratioP2;P2;SDS_P1;SDS_P2;PMS_P1;PMS_P2;Temp;Humidity;BMP_temperature;BMP_pressure;BME280_temperature;BME280_humidity;BME280_pressure;Samples;Min_cycle;Max_cycle;Signal;HPM_P1;HPM_P2
2023/11/19 00:00:53;;;;;;;62.33;28.60;;;11.60;99.90;;;;;;5046214;28;20191;-57
2023/11/19 00:03:20;;;;;;;68.38;30.05;;;11.70;99.90;;;;;;5046173;28;20198;-52
2023/11/19 00:05:46;;;;;;;64.00;28.90;;;11.80;99.90;;;;;;5061945;28;20211;-54
2023/11/19 00:08:11;;;;;;;65.03;29.40;;;11.80;99.90;;;;;;5047121;28;20670;-53
2023/11/19 00:10:37;;;;;;;64.15;28.77;;;11.90;99.90;;;;;;5046064;28;20210;-53
2023/11/19 00:13:04;;;;;;;75.80;28.30;;;11.90;99.90;;;;;;5046611;28;20211;-53
2023/11/19 00:15:30;;;;;;;57.67;26.92;;;12.00;99.90;;;;;;5046985;28;20548;-52
2023/11/19 00:17:56;;;;;;;75.35;28.17;;;12.00;99.90;;;;;;5045595;28;20204;-57
2023/11/19 00:20:21;;;;;;;64.22;26.98;;;12.10;99.90;;;;;;5047231;28;20655;-54
2023/11/19 00:22:50;;;;;;;70.50;25.45;;;12.10;99.90;;;;;;5048207;28;20240;-54
2023/11/19 00:25:21;;;;;;;57.88;23.20;;;12.20;99.90;;;;;;5053195;28;20190;-55
2023/11/19 00:27:47;;;;;;;50.30;20.85;;;12.30;99.90;;;;;;5053701;28;20183;-54
2023/11/19 00:30:14;;;;;;;51.70;21.40;;;12.30;99.90;;;;;;5067203;28;20820;-53
2023/11/19 00:32:41;;;;;;;67.25;20.27;;;12.40;99.90;;;;;;5066266;28;20230;-49
2023/11/19 00:35:07;;;;;;;58.30;19.10;;;12.40;99.90;;;;;;5046580;28;20199;-54
2023/11/19 00:37:33;;;;;;;48.25;18.30;;;12.50;99.90;;;;;;5048554;28;20186;-55
2023/11/19 00:39:59;;;;;;;46.30;17.50;;;12.50;99.90;;;;;;5051427;28;20191;-51
2023/11/19 00:42:26;;;;;;;53.67;16.83;;;12.60;99.90;;;;;;5048767;28;20191;-52
2023/11/19 00:44:52;;;;;;;53.95;16.70;;;12.60;99.90;;;;;;5064339;28;20245;-54
2023/11/19 00:47:20;;;;;;;58.05;15.38;;;12.70;99.90;;;;;;5066601;28;20686;-51
2023/11/19 00:49:48;;;;;;;46.28;14.32;;;12.70;99.90;;;;;;5052368;28;20263;-54
2023/11/19 00:52:15;;;;;;;45.60;13.27;;;12.70;99.90;;;;;;5048449;28;20226;-46
2023/11/19 00:54:42;;;;;;;44.75;12.48;;;12.80;99.90;;;;;;5051840;28;20194;-51
2023/11/19 00:57:08;;;;;;;46.35;12.00;;;12.80;99.90;;;;;;5050241;28;20207;-52
2023/11/19 00:59:34;;;;;;;47.95;13.05;;;12.80;99.90;;;;;;5048444;28;20195;-53
2023/11/19 01:02:03;;;;;;;51.72;11.95;;;12.90;99.90;;;;;;5050308;28;20672;-51
2023/11/19 01:04:30;;;;;;;50.85;11.98;;;12.90;99.90;;;;;;5049808;28;20193;-54
2023/11/19 01:06:55;;;;;;;50.38;11.02;;;12.90;99.90;;;;;;5050799;28;20556;-50
2023/11/19 01:09:21;;;;;;;58.58;10.65;;;12.90;99.90;;;;;;5051321;28;20195;-54
2023/11/19 01:11:47;;;;;;;46.60;9.70;;;13.00;99.90;;;;;;5065419;28;20237;-53
2023/11/19 01:14:13;;;;;;;41.80;9.40;;;13.00;99.90;;;;;;5050368;28;20266;-51
2023/11/19 01:16:39;;;;;;;55.00;9.88;;;13.00;99.90;;;;;;5050542;28;20186;-54
2023/11/19 01:19:05;;;;;;;53.90;9.30;;;13.00;99.90;;;;;;5049196;28;20220;-52
2023/11/19 01:21:31;;;;;;;48.03;9.20;;;13.10;99.90;;;;;;5048192;28;20176;-55
2023/11/19 01:24:00;;;;;;;52.08;10.57;;;13.10;99.90;;;;;;5065873;28;20206;-52
2023/11/19 01:26:26;;;;;;;50.50;9.07;;;13.10;99.90;;;;;;5048819;28;20187;-56
2023/11/19 01:28:53;;;;;;;46.17;8.70;;;13.10;99.90;;;;;;5048664;28;20195;-49
2023/11/19 01:31:19;;;;;;;49.22;8.57;;;13.10;99.90;;;;;;5048724;28;20207;-55
2023/11/19 01:33:46;;;;;;;52.15;8.75;;;13.10;99.90;;;;;;5049519;28;20206;-52
2023/11/19 01:36:15;;;;;;;52.38;9.07;;;13.10;99.90;;;;;;5048645;28;20190;-54
2023/11/19 01:38:41;;;;;;;44.17;7.32;;;13.20;99.90;;;;;;5047739;28;20647;-55
2023/11/19 01:41:07;;;;;;;34.08;6.68;;;13.20;99.90;;;;;;5064029;28;20201;-52
2023/11/19 01:43:38;;;;;;;38.50;8.13;;;13.20;99.90;;;;;;5049091;28;20202;-55
2023/11/19 01:46:05;;;;;;;44.45;7.00;;;13.20;99.90;;;;;;5048501;28;20187;-53
2023/11/19 01:48:34;;;;;;;47.63;7.95;;;13.20;99.90;;;;;;5049564;28;20237;-50
2023/11/19 01:51:01;;;;;;;48.45;8.25;;;13.20;99.90;;;;;;5049229;28;20203;-55
2023/11/19 01:53:27;;;;;;;47.47;8.93;;;13.20;99.90;;;;;;5050653;28;20241;-56
2023/11/19 01:55:54;;;;;;;45.08;7.70;;;13.20;99.90;;;;;;5051364;28;20764;-51
2023/11/19 01:58:20;;;;;;;52.28;8.50;;;13.20;99.90;;;;;;5050383;28;20183;-50
2023/11/19 02:00:46;;;;;;;50.30;8.40;;;13.20;99.90;;;;;;5046281;28;20199;-55
2023/11/19 02:03:14;;;;;;;34.83;7.18;;;13.20;99.90;;;;;;5046625;28;20195;-55
2023/11/19 02:05:40;;;;;;;49.55;7.82;;;13.20;99.90;;;;;;5048300;28;20303;-51
2023/11/19 02:08:07;;;;;;;51.25;7.32;;;13.20;99.90;;;;;;5048924;28;20191;-52
2023/11/19 02:10:33;;;;;;;52.05;6.93;;;13.20;99.90;;;;;;5052310;28;20286;-55
2023/11/19 02:13:01;;;;;;;46.58;7.80;;;13.20;99.90;;;;;;5050961;28;20294;-52
2023/11/19 02:15:27;;;;;;;55.85;7.82;;;13.20;99.90;;;;;;5047010;28;20197;-51
2023/11/19 02:17:53;;;;;;;46.95;7.63;;;13.20;99.90;;;;;;5045563;28;20183;-47
2023/11/19 02:20:20;;;;;;;52.75;8.38;;;13.20;99.90;;;;;;5049211;28;20198;-51
2023/11/19 02:22:52;;;;;;;51.13;7.57;;;13.20;99.90;;;;;;5062815;28;20222;-52
2023/11/19 02:25:29;;;;;;;43.63;6.97;;;13.20;99.90;;;;;;5066514;28;20206;-49
2023/11/19 02:27:59;;;;;;;44.38;7.13;;;13.20;99.90;;;;;;5046309;28;20897;-52
2023/11/19 02:30:29;;;;;;;52.20;8.18;;;13.20;99.90;;;;;;5059080;28;20199;-53
2023/11/19 02:33:03;;;;;;;54.45;9.07;;;13.20;99.90;;;;;;5049057;28;20222;-49
2023/11/19 02:35:31;;;;;;;57.53;8.88;;;13.20;99.90;;;;;;5042849;28;20181;-53
2023/11/19 02:37:59;;;;;;;51.65;8.70;;;13.20;99.90;;;;;;5065391;28;20183;-52
2023/11/19 02:40:25;;;;;;;48.80;8.68;;;13.20;99.90;;;;;;5049072;28;20194;-54
2023/11/19 02:42:52;;;;;;;47.90;8.07;;;13.10;99.90;;;;;;5065925;28;20663;-47
2023/11/19 02:45:18;;;;;;;50.95;8.52;;;13.10;99.90;;;;;;5049035;28;20201;-54
2023/11/19 02:47:44;;;;;;;43.67;7.40;;;13.10;99.90;;;;;;5049858;28;20231;-53
2023/11/19 02:50:14;;;;;;;48.97;7.95;;;13.20;99.90;;;;;;5047262;28;20281;-55
2023/11/19 02:52:45;;;;;;;44.53;7.00;;;13.10;99.90;;;;;;5046272;28;20191;-55
2023/11/19 02:55:12;;;;;;;48.47;8.02;;;13.10;99.90;;;;;;5045424;28;20191;-53
2023/11/19 02:57:48;;;;;;;39.88;7.90;;;13.10;99.90;;;;;;5047160;28;20720;-52
2023/11/19 03:00:23;;;;;;;42.20;7.68;;;13.00;99.90;;;;;;5047638;28;20267;-50
2023/11/19 03:02:58;;;;;;;49.92;8.32;;;13.00;99.90;;;;;;5047996;28;20194;-49
2023/11/19 03:05:26;;;;;;;49.00;7.78;;;13.00;99.90;;;;;;5047702;28;20694;-54
2023/11/19 03:07:52;;;;;;;51.05;7.88;;;13.00;99.90;;;;;;5063103;28;20198;-52
2023/11/19 03:10:18;;;;;;;44.67;7.97;;;13.00;99.90;;;;;;5049305;28;20219;-54
2023/11/19 03:12:45;;;;;;;49.78;7.45;;;12.90;99.90;;;;;;5047280;28;20274;-53
2023/11/19 03:15:11;;;;;;;38.55;7.75;;;12.90;99.90;;;;;;5047995;28;20187;-49
2023/11/19 03:17:41;;;;;;;55.55;7.47;;;12.90;99.90;;;;;;5047516;28;20191;-54
2023/11/19 03:20:14;;;;;;;48.15;7.45;;;12.90;99.90;;;;;;5058093;28;20191;-53
2023/11/19 03:22:41;;;;;;;49.28;7.63;;;12.80;99.90;;;;;;5046408;28;20221;-52
2023/11/19 03:25:08;;;;;;;50.83;7.40;;;12.80;99.90;;;;;;5049710;28;20191;-50
2023/11/19 03:27:38;;;;;;;44.05;7.28;;;12.80;99.90;;;;;;5057467;28;20190;-52
2023/11/19 03:30:05;;;;;;;45.38;7.53;;;12.80;99.90;;;;;;5050482;28;20231;-53
2023/11/19 03:32:33;;;;;;;38.40;6.78;;;12.80;99.90;;;;;;5046534;28;20190;-51
2023/11/19 03:34:59;;;;;;;43.78;7.05;;;12.80;99.90;;;;;;5045126;28;20515;-51
2023/11/19 03:37:26;;;;;;;47.60;8.52;;;12.80;99.90;;;;;;5046916;28;20186;-54
2023/11/19 03:39:54;;;;;;;40.53;6.82;;;12.80;99.90;;;;;;5061764;28;20191;-51
2023/11/19 03:42:21;;;;;;;43.78;7.65;;;12.80;99.90;;;;;;5047385;28;20191;-51
2023/11/19 03:44:49;;;;;;;40.55;7.72;;;12.90;99.90;;;;;;5050564;28;20193;-49
2023/11/19 03:47:16;;;;;;;47.13;7.38;;;12.90;99.90;;;;;;5049200;28;20187;-52
2023/11/19 03:49:42;;;;;;;45.35;7.03;;;12.90;99.90;;;;;;5047415;28;20313;-52
2023/11/19 03:52:09;;;;;;;38.72;6.88;;;12.90;99.90;;;;;;5045062;28;20225;-55
2023/11/19 03:54:35;;;;;;;40.83;7.53;;;12.90;99.90;;;;;;5048156;28;20226;-53
2023/11/19 03:57:03;;;;;;;40.78;6.97;;;12.90;99.90;;;;;;5046809;28;20651;-49
2023/11/19 03:59:29;;;;;;;41.50;7.97;;;12.90;99.90;;;;;;5052900;28;20551;-53
2023/11/19 04:01:56;;;;;;;44.40;7.43;;;12.90;99.90;;;;;;5050967;28;20195;-54
2023/11/19 04:04:22;;;;;;;48.45;7.95;;;12.90;99.90;;;;;;5050409;28;20183;-52
2023/11/19 04:06:48;;;;;;;53.22;8.30;;;12.90;99.90;;;;;;5050278;28;20187;-54
2023/11/19 04:09:14;;;;;;;50.22;7.55;;;12.90;99.90;;;;;;5052252;28;20195;-54
2023/11/19 04:11:40;;;;;;;48.63;7.78;;;12.90;99.90;;;;;;5067665;28;20240;-54
2023/11/19 04:14:06;;;;;;;46.25;7.10;;;12.90;99.90;;;;;;5065954;28;20206;-49
2023/11/19 04:16:32;;;;;;;44.60;7.50;;;12.90;99.90;;;;;;5068558;28;20196;-53
2023/11/19 04:18:58;;;;;;;52.45;7.93;;;12.90;99.90;;;;;;5050312;28;20294;-54
2023/11/19 04:21:25;;;;;;;42.58;6.55;;;12.90;99.90;;;;;;5065211;28;20199;-53
2023/11/19 04:23:51;;;;;;;45.17;7.13;;;12.90;99.90;;;;;;5050679;28;20818;-54
2023/11/19 04:26:17;;;;;;;42.60;7.20;;;12.90;99.90;;;;;;5053992;28;20218;-51
2023/11/19 04:28:43;;;;;;;43.53;7.50;;;12.90;99.90;;;;;;5048972;28;20993;-54
2023/11/19 04:31:09;;;;;;;40.22;6.72;;;12.90;99.90;;;;;;5068275;28;20207;-52
2023/11/19 04:33:35;;;;;;;38.17;6.72;;;12.90;99.90;;;;;;5049610;28;20233;-55
2023/11/19 04:36:02;;;;;;;47.95;7.53;;;12.90;99.90;;;;;;5049790;28;20556;-53
2023/11/19 04:38:28;;;;;;;46.65;7.78;;;12.90;99.90;;;;;;5053895;28;20187;-54
2023/11/19 04:40:54;;;;;;;59.15;7.10;;;12.90;99.90;;;;;;5049406;28;20187;-46
2023/11/19 04:43:20;;;;;;;43.58;7.45;;;12.90;99.90;;;;;;5049123;28;20195;-52
2023/11/19 04:45:45;;;;;;;58.58;8.45;;;12.90;99.90;;;;;;5049368;28;20206;-53
2023/11/19 04:48:12;;;;;;;46.55;6.97;;;12.80;99.90;;;;;;5050632;28;20598;-51
2023/11/19 04:50:38;;;;;;;49.88;7.97;;;12.90;99.90;;;;;;5049975;28;20214;-48
2023/11/19 04:53:04;;;;;;;47.38;7.40;;;12.90;99.90;;;;;;5051752;28;20194;-54
2023/11/19 04:55:30;;;;;;;52.65;7.43;;;12.90;99.90;;;;;;5051790;28;21638;-48
2023/11/19 04:57:56;;;;;;;52.85;8.10;;;12.80;99.90;;;;;;5050276;28;20198;-48
2023/11/19 05:00:22;;;;;;;40.75;7.07;;;12.80;99.90;;;;;;5049971;28;20266;-52
2023/11/19 05:02:48;;;;;;;51.13;7.55;;;12.80;99.90;;;;;;5048712;28;20290;-54
2023/11/19 05:05:16;;;;;;;52.53;8.05;;;12.80;99.90;;;;;;5052175;28;20178;-55
2023/11/19 05:07:41;;;;;;;45.45;8.00;;;12.80;99.90;;;;;;5052921;28;20195;-49
2023/11/19 05:10:08;;;;;;;48.88;7.88;;;12.80;99.90;;;;;;5050657;28;20681;-52
2023/11/19 05:12:34;;;;;;;50.55;7.82;;;12.80;99.90;;;;;;5049156;28;20333;-54
2023/11/19 05:15:00;;;;;;;53.63;7.80;;;12.80;99.90;;;;;;5047239;28;20273;-50
2023/11/19 05:17:26;;;;;;;51.38;7.90;;;12.80;99.90;;;;;;5048120;28;20565;-54
2023/11/19 05:19:52;;;;;;;52.25;8.23;;;12.80;99.90;;;;;;5050766;28;20648;-50
2023/11/19 05:22:20;;;;;;;60.15;8.73;;;12.90;99.90;;;;;;5053060;28;20556;-50
2023/11/19 05:24:48;;;;;;;58.97;7.80;;;12.90;99.90;;;;;;5047913;28;20202;-53
2023/11/19 05:27:14;;;;;;;44.00;7.63;;;12.90;99.90;;;;;;5051542;28;20218;-52
2023/11/19 05:29:41;;;;;;;45.17;7.72;;;12.80;99.90;;;;;;5051389;28;20244;-53
2023/11/19 05:32:07;;;;;;;56.95;7.90;;;12.80;99.90;;;;;;5049489;28;20235;-50
2023/11/19 05:34:32;;;;;;;53.05;8.27;;;12.80;99.90;;;;;;5051282;28;20222;-56
2023/11/19 05:36:58;;;;;;;57.33;8.98;;;12.80;99.90;;;;;;5052043;28;20196;-51
2023/11/19 05:39:24;;;;;;;44.22;7.53;;;12.80;99.90;;;;;;5048228;28;20244;-52
2023/11/19 05:41:50;;;;;;;56.72;8.43;;;12.80;99.90;;;;;;5050692;28;20195;-52
2023/11/19 05:44:17;;;;;;;50.60;8.45;;;12.80;99.90;;;;;;5050574;28;20240;-55
2023/11/19 05:46:43;;;;;;;43.15;7.75;;;12.80;99.90;;;;;;5048335;28;20618;-49
2023/11/19 05:49:10;;;;;;;47.17;7.35;;;12.80;99.90;;;;;;5051122;28;20235;-49
2023/11/19 05:51:38;;;;;;;51.03;7.85;;;12.80;99.90;;;;;;5051671;28;20214;-54
2023/11/19 05:54:08;;;;;;;37.55;6.28;;;12.70;99.90;;;;;;5045924;28;20257;-53
2023/11/19 05:56:34;;;;;;;38.70;6.70;;;12.80;99.90;;;;;;5051382;28;20272;-53
2023/11/19 05:59:02;;;;;;;70.45;8.35;;;12.80;99.90;;;;;;5048566;28;20182;-53
2023/11/19 06:01:31;;;;;;;41.47;7.38;;;12.80;99.90;;;;;;5058909;28;20260;-53
2023/11/19 06:03:57;;;;;;;48.08;8.18;;;12.70;99.90;;;;;;5049343;28;20594;-49
2023/11/19 06:06:23;;;;;;;52.08;7.82;;;12.70;99.90;;;;;;5050476;28;20200;-52
2023/11/19 06:08:50;;;;;;;53.03;8.13;;;12.60;99.90;;;;;;5060755;28;20206;-52
2023/11/19 06:11:18;;;;;;;53.53;7.00;;;12.60;99.90;;;;;;5047525;28;20242;-50
2023/11/19 06:13:44;;;;;;;52.65;8.40;;;12.60;99.90;;;;;;5049646;28;20662;-55
2023/11/19 06:16:10;;;;;;;54.97;7.68;;;12.60;99.90;;;;;;5048279;28;20282;-53
2023/11/19 06:18:36;;;;;;;56.65;9.30;;;12.50;99.90;;;;;;5046173;28;20557;-51
2023/11/19 06:21:03;;;;;;;50.63;7.75;;;12.60;99.90;;;;;;5047454;28;20562;-49
2023/11/19 06:23:29;;;;;;;60.40;8.65;;;12.60;99.90;;;;;;5046878;28;20198;-54
2023/11/19 06:25:54;;;;;;;53.00;7.88;;;12.50;99.90;;;;;;5047732;28;20197;-52
2023/11/19 06:28:20;;;;;;;49.67;7.63;;;12.50;99.90;;;;;;5051555;28;20806;-51
2023/11/19 06:30:46;;;;;;;54.08;8.20;;;12.50;99.90;;;;;;5048205;28;20207;-52
2023/11/19 06:33:15;;;;;;;47.25;7.82;;;12.50;99.90;;;;;;5050176;28;20183;-56
2023/11/19 06:35:41;;;;;;;50.30;7.68;;;12.50;99.90;;;;;;5049437;28;20198;-54
2023/11/19 06:38:07;;;;;;;52.28;7.32;;;12.50;99.90;;;;;;5049637;28;20669;-54
2023/11/19 06:40:34;;;;;;;51.35;7.95;;;12.40;99.90;;;;;;5050272;28;20191;-51
2023/11/19 06:43:02;;;;;;;60.72;8.02;;;12.40;99.90;;;;;;5048348;28;20191;-51
2023/11/19 06:45:28;;;;;;;62.17;7.82;;;12.40;99.90;;;;;;5048390;28;20202;-52
2023/11/19 06:47:54;;;;;;;43.65;7.13;;;12.50;99.90;;;;;;5047183;28;20227;-55
2023/11/19 06:50:20;;;;;;;51.78;7.57;;;12.50;99.90;;;;;;5046576;28;20183;-54
2023/11/19 06:52:46;;;;;;;42.90;7.80;;;12.40;99.90;;;;;;5048074;28;20237;-51
2023/11/19 06:55:12;;;;;;;53.08;7.97;;;12.40;99.90;;;;;;5050945;28;20240;-53
2023/11/19 06:57:38;;;;;;;48.88;8.05;;;12.40;99.90;;;;;;5048752;28;20558;-52
2023/11/19 07:00:05;;;;;;;45.65;7.80;;;12.40;99.90;;;;;;5049794;28;21262;-52
2023/11/19 07:02:32;;;;;;;48.30;7.30;;;12.40;99.90;;;;;;5049525;28;20189;-51
2023/11/19 07:04:57;;;;;;;53.70;7.45;;;12.40;99.90;;;;;;5046442;28;20274;-51
2023/11/19 07:07:23;;;;;;;41.40;7.25;;;12.40;99.90;;;;;;5046683;28;20695;-49
2023/11/19 07:09:50;;;;;;;48.60;7.53;;;12.40;99.90;;;;;;5048000;28;20646;-52
2023/11/19 07:12:16;;;;;;;39.65;6.43;;;12.30;99.90;;;;;;5048169;28;20211;-48
2023/11/19 07:14:42;;;;;;;41.60;7.15;;;12.30;99.90;;;;;;5049194;28;20204;-51
2023/11/19 07:17:08;;;;;;;49.75;7.88;;;12.30;99.90;;;;;;5048915;28;20180;-49
2023/11/19 07:19:36;;;;;;;56.05;8.20;;;12.30;99.90;;;;;;5046856;28;20663;-54
2023/11/19 07:22:02;;;;;;;48.80;6.88;;;12.30;99.90;;;;;;5046687;28;20191;-50
2023/11/19 07:24:28;;;;;;;63.25;8.80;;;12.30;99.90;;;;;;5048517;28;20195;-49
2023/11/19 07:26:54;;;;;;;54.65;8.25;;;12.30;99.90;;;;;;5045835;28;20201;-46
2023/11/19 07:29:23;;;;;;;59.30;8.27;;;12.20;99.90;;;;;;5046648;28;20577;-46
2023/11/19 07:31:49;;;;;;;51.42;7.15;;;12.20;99.90;;;;;;5045444;28;20225;-51
2023/11/19 07:34:15;;;;;;;50.58;9.20;;;12.30;99.90;;;;;;5046768;28;20647;-54
2023/11/19 07:36:41;;;;;;;54.47;7.68;;;12.30;99.90;;;;;;5047463;28;20194;-49
2023/11/19 07:39:08;;;;;;;48.70;7.28;;;12.30;99.90;;;;;;5044404;28;20643;-50
2023/11/19 07:41:34;;;;;;;62.00;7.68;;;12.30;99.90;;;;;;5047803;28;20220;-52
2023/11/19 07:44:04;;;;;;;46.80;7.00;;;12.20;99.90;;;;;;5056843;28;20198;-49
2023/11/19 07:46:29;;;;;;;44.78;7.28;;;12.20;99.90;;;;;;5056764;28;20191;-51
2023/11/19 07:48:55;;;;;;;52.50;7.82;;;12.20;99.90;;;;;;5046008;28;20241;-52
2023/11/19 07:51:21;;;;;;;44.80;7.38;;;12.20;99.90;;;;;;5047494;28;20203;-49
2023/11/19 07:53:47;;;;;;;55.75;8.00;;;12.30;99.90;;;;;;5043414;28;20215;-55
2023/11/19 07:56:13;;;;;;;47.85;7.43;;;12.30;99.90;;;;;;5044116;28;20183;-51
2023/11/19 07:58:39;;;;;;;49.42;7.88;;;12.30;99.90;;;;;;5046476;28;20194;-53
2023/11/19 08:01:05;;;;;;;50.55;7.95;;;12.40;99.90;;;;;;5046433;28;20191;-52
2023/11/19 08:03:34;;;;;;;46.17;6.85;;;12.40;99.90;;;;;;5046600;28;20207;-53
2023/11/19 08:06:00;;;;;;;49.65;8.13;;;12.40;99.90;;;;;;5046335;28;20199;-51
2023/11/19 08:08:29;;;;;;;54.08;7.72;;;12.40;99.90;;;;;;5062743;28;20190;-46
2023/11/19 08:10:56;;;;;;;53.40;7.47;;;12.40;99.90;;;;;;5048468;28;20253;-53
2023/11/19 08:13:24;;;;;;;43.58;7.85;;;12.40;99.90;;;;;;5047220;28;21237;-49
2023/11/19 08:15:50;;;;;;;47.72;7.80;;;12.50;99.90;;;;;;5049096;28;20245;-53
2023/11/19 08:18:15;;;;;;;49.63;6.97;;;12.50;99.90;;;;;;5047715;28;20191;-53
2023/11/19 08:20:43;;;;;;;55.92;8.27;;;12.50;99.90;;;;;;5044686;28;20225;-51
2023/11/19 08:23:09;;;;;;;51.45;7.80;;;12.50;99.90;;;;;;5046460;28;20611;-37
2023/11/19 08:25:35;;;;;;;48.70;7.75;;;12.50;99.90;;;;;;5050205;28;20217;-51
2023/11/19 08:28:03;;;;;;;44.13;7.60;;;12.40;99.90;;;;;;5050155;28;20187;-45
2023/11/19 08:30:30;;;;;;;47.15;7.70;;;12.40;99.90;;;;;;5048526;28;20660;-42
2023/11/19 08:32:56;;;;;;;45.88;7.45;;;12.40;99.90;;;;;;5050017;28;20652;-45
2023/11/19 08:35:22;;;;;;;50.78;7.60;;;12.40;99.90;;;;;;5049870;28;20220;-43
2023/11/19 08:37:48;;;;;;;56.33;7.50;;;12.40;99.90;;;;;;5050186;28;20182;-47
2023/11/19 08:40:14;;;;;;;56.30;7.82;;;12.40;99.90;;;;;;5049955;28;20273;-42
2023/11/19 08:42:40;;;;;;;53.13;7.93;;;12.40;99.90;;;;;;5049049;28;20295;-47
2023/11/19 08:45:10;;;;;;;49.88;7.97;;;12.40;99.90;;;;;;5048754;28;20262;-45
2023/11/19 08:47:37;;;;;;;42.45;6.68;;;12.40;99.90;;;;;;5053658;28;20179;-43
2023/11/19 08:50:04;;;;;;;47.10;6.85;;;12.50;99.90;;;;;;5052433;28;20191;-48
2023/11/19 08:52:30;;;;;;;46.25;7.57;;;12.50;99.90;;;;;;5051797;28;20238;-47
2023/11/19 08:54:57;;;;;;;44.72;7.20;;;12.50;99.90;;;;;;5056574;28;20248;-44
2023/11/19 08:57:22;;;;;;;50.67;7.38;;;12.50;99.90;;;;;;5056830;28;20199;-49
2023/11/19 08:59:48;;;;;;;35.95;6.53;;;12.50;99.90;;;;;;5051047;28;20188;-49
2023/11/19 09:02:16;;;;;;;54.80;7.63;;;12.60;99.90;;;;;;5052567;28;20197;-48
2023/11/19 09:04:42;;;;;;;44.60;6.72;;;12.60;99.90;;;;;;5054522;28;20186;-48
2023/11/19 09:07:09;;;;;;;50.97;6.95;;;12.60;99.90;;;;;;5050768;28;20354;-47
2023/11/19 09:09:36;;;;;;;53.67;6.93;;;12.60;99.90;;;;;;5049279;28;20784;-49
2023/11/19 09:12:03;;;;;;;52.75;7.25;;;12.60;99.90;;;;;;5056544;28;20215;-43
2023/11/19 09:14:30;;;;;;;41.75;6.72;;;12.60;99.90;;;;;;5053225;28;20544;-47
2023/11/19 09:16:57;;;;;;;50.75;7.63;;;12.60;99.90;;;;;;5051171;28;20339;-46
2023/11/19 09:19:24;;;;;;;44.22;7.18;;;12.50;99.90;;;;;;5051294;28;20171;-48
2023/11/19 09:21:50;;;;;;;46.38;7.43;;;12.50;99.90;;;;;;5052373;28;20190;-48
2023/11/19 09:24:16;;;;;;;47.78;7.40;;;12.50;99.90;;;;;;5055754;28;20188;-45
2023/11/19 09:26:42;;;;;;;45.75;7.07;;;12.50;99.90;;;;;;5050541;28;20198;-51
2023/11/19 09:29:08;;;;;;;48.55;7.85;;;12.50;99.90;;;;;;5053368;28;20554;-49
2023/11/19 09:31:34;;;;;;;47.97;7.93;;;12.50;99.90;;;;;;5055146;28;20588;-50
2023/11/19 09:34:01;;;;;;;47.28;8.07;;;12.60;99.90;;;;;;5050694;28;20183;-44
2023/11/19 09:36:26;;;;;;;51.05;7.68;;;12.60;99.90;;;;;;5052604;28;20207;-47
2023/11/19 09:38:52;;;;;;;47.10;7.72;;;12.70;99.90;;;;;;5053912;28;20262;-45
2023/11/19 09:41:19;;;;;;;49.67;8.15;;;12.70;99.90;;;;;;5054840;28;20277;-51
2023/11/19 09:43:45;;;;;;;40.00;6.68;;;12.70;99.90;;;;;;5053721;28;20245;-44
2023/11/19 09:46:15;;;;;;;49.95;7.43;;;12.70;99.90;;;;;;5054221;28;20253;-48
2023/11/19 09:48:42;;;;;;;46.88;6.72;;;12.80;99.90;;;;;;5053562;28;20300;-49
2023/11/19 09:51:09;;;;;;;53.35;7.35;;;12.80;99.90;;;;;;5053291;28;20583;-50
2023/11/19 09:53:36;;;;;;;41.63;6.50;;;12.90;99.90;;;;;;5054319;28;20722;-49
2023/11/19 09:56:05;;;;;;;46.55;7.55;;;13.00;99.90;;;;;;5055600;28;20179;-49
2023/11/19 09:58:32;;;;;;;48.20;8.13;;;13.00;99.90;;;;;;5050834;28;20674;-46
2023/11/19 10:00:59;;;;;;;41.38;7.30;;;13.00;99.90;;;;;;5053748;28;20553;-49
2023/11/19 10:03:28;;;;;;;46.85;7.45;;;13.10;99.90;;;;;;5050124;28;20216;-48
2023/11/19 10:05:56;;;;;;;47.28;7.82;;;13.00;99.90;;;;;;5053732;28;21225;-43
2023/11/19 10:08:22;;;;;;;49.30;7.18;;;13.00;99.90;;;;;;5048377;28;20190;-48
2023/11/19 10:10:48;;;;;;;44.63;6.03;;;13.00;99.90;;;;;;5051783;28;20223;-42
2023/11/19 10:13:14;;;;;;;37.03;6.13;;;13.00;99.90;;;;;;5055272;28;20183;-45
2023/11/19 10:15:40;;;;;;;50.90;7.82;;;13.10;99.90;;;;;;5051161;28;20712;-50
2023/11/19 10:18:07;;;;;;;41.00;6.43;;;13.10;99.90;;;;;;5053454;28;20179;-43
2023/11/19 10:20:36;;;;;;;47.05;7.53;;;13.20;99.90;;;;;;5055114;28;20645;-50
2023/11/19 10:23:03;;;;;;;37.38;7.38;;;13.20;99.90;;;;;;5054224;28;20243;-49
2023/11/19 10:25:30;;;;;;;42.63;7.05;;;13.30;99.90;;;;;;5049301;28;20190;-47
2023/11/19 10:27:56;;;;;;;43.90;6.80;;;13.30;99.90;;;;;;5054478;28;20195;-44
2023/11/19 10:30:27;;;;;;;55.67;8.07;;;13.40;99.90;;;;;;5054334;28;20225;-50
2023/11/19 10:33:20;;;;;;;46.35;6.82;;;13.40;99.90;;;;;;5052860;28;20277;-46
2023/11/19 10:35:53;;;;;;;46.03;7.40;;;13.50;99.90;;;;;;5052130;28;20194;-41
2023/11/19 10:38:19;;;;;;;42.58;6.55;;;13.50;99.90;;;;;;5051476;28;20277;-46
2023/11/19 10:40:45;;;;;;;41.90;7.32;;;13.50;99.90;;;;;;5052128;28;20198;-46
2023/11/19 10:43:11;;;;;;;42.58;7.43;;;13.50;99.90;;;;;;5051329;28;20178;-44
2023/11/19 10:45:38;;;;;;;45.10;7.38;;;13.60;99.90;;;;;;5048745;28;20578;-44
2023/11/19 10:48:08;;;;;;;34.97;6.63;;;13.50;99.90;;;;;;5053015;28;20234;-42
2023/11/19 10:50:35;;;;;;;38.17;6.95;;;13.50;99.90;;;;;;5053152;28;20215;-47
2023/11/19 10:53:01;;;;;;;40.28;6.78;;;13.50;99.90;;;;;;5051694;28;20205;-50
2023/11/19 10:55:30;;;;;;;35.70;6.15;;;13.50;99.90;;;;;;5051885;28;20836;-41
2023/11/19 10:58:00;;;;;;;39.22;7.22;;;13.50;99.90;;;;;;5050659;28;20194;-47
2023/11/19 11:00:34;;;;;;;36.58;7.18;;;13.50;99.90;;;;;;5051695;28;20287;-49
2023/11/19 11:03:02;;;;;;;36.75;6.78;;;13.50;99.90;;;;;;5051301;28;20627;-45
2023/11/19 11:05:33;;;;;;;41.25;6.68;;;13.50;99.90;;;;;;5049867;28;20206;-50
2023/11/19 11:08:00;;;;;;;29.63;6.43;;;13.50;99.90;;;;;;5054561;28;20993;-51
2023/11/19 11:10:28;;;;;;;39.72;6.60;;;13.50;99.90;;;;;;5049110;28;20201;-49
2023/11/19 11:12:58;;;;;;;34.05;6.50;;;13.40;99.90;;;;;;5046022;28;20205;-48
2023/11/19 11:15:28;;;;;;;44.70;7.07;;;13.40;99.90;;;;;;5051052;28;20201;-48
2023/11/19 11:18:01;;;;;;;48.67;7.30;;;13.40;99.90;;;;;;5054775;28;20191;-50
2023/11/19 11:20:33;;;;;;;41.85;6.32;;;13.40;99.90;;;;;;5050884;28;20214;-47
2023/11/19 11:23:35;;;;;;;41.67;7.15;;;13.40;99.90;;;;;;5051033;28;20279;-48
2023/11/19 11:26:19;;;;;;;36.20;6.30;;;13.50;99.90;;;;;;5051849;28;20210;-48
2023/11/19 11:29:24;;;;;;;39.28;6.28;;;13.50;99.90;;;;;;5052841;28;20190;-49
2023/11/19 11:32:17;;;;;;;44.08;7.43;;;13.50;99.90;;;;;;5052658;28;20224;-49
2023/11/19 11:34:50;;;;;;;41.72;6.72;;;13.50;99.90;;;;;;5049589;28;20513;-43
2023/11/19 11:37:26;;;;;;;43.00;6.88;;;13.50;99.90;;;;;;5049931;28;20183;-47
2023/11/19 11:39:52;;;;;;;39.72;6.20;;;13.50;99.90;;;;;;5050628;28;20174;-48
2023/11/19 11:42:17;;;;;;;38.72;6.57;;;13.50;99.90;;;;;;5050299;28;20225;-50
2023/11/19 11:45:10;;;;;;;44.30;6.30;;;13.50;99.90;;;;;;5053163;28;21243;-42
2023/11/19 11:47:42;;;;;;;44.00;6.72;;;13.60;99.90;;;;;;5050495;28;20194;-47
2023/11/19 11:50:35;;;;;;;49.08;7.45;;;13.60;99.90;;;;;;5049565;28;20281;-47
2023/11/19 11:53:05;;;;;;;40.90;6.50;;;13.70;99.90;;;;;;5049381;28;20218;-40
2023/11/19 11:55:36;;;;;;;38.40;6.38;;;13.70;99.90;;;;;;5049534;28;20608;-47
2023/11/19 11:58:05;;;;;;;52.78;6.82;;;13.70;99.90;;;;;;5051104;28;20187;-45
2023/11/19 12:00:31;;;;;;;34.70;6.80;;;13.60;99.90;;;;;;5052011;28;20194;-49
2023/11/19 12:03:00;;;;;;;41.78;7.40;;;13.60;99.90;;;;;;5052522;28;20187;-44
2023/11/19 12:05:26;;;;;;;42.00;7.43;;;13.60;99.90;;;;;;5052467;28;20186;-49
2023/11/19 12:07:58;;;;;;;39.60;6.28;;;13.50;99.90;;;;;;5051052;28;20651;-50
2023/11/19 12:10:25;;;;;;;43.00;6.85;;;13.40;99.90;;;;;;5050390;28;20187;-46
2023/11/19 12:12:57;;;;;;;44.35;9.43;;;13.30;99.90;;;;;;5050025;28;20594;-44
2023/11/19 12:15:26;;;;;;;40.78;6.38;;;13.30;99.90;;;;;;5051307;28;20195;-42
2023/11/19 12:17:52;;;;;;;33.78;5.18;;;13.30;99.90;;;;;;5051131;28;20186;-45
2023/11/19 12:20:20;;;;;;;41.05;6.05;;;13.30;99.90;;;;;;5049016;28;20198;-40
2023/11/19 12:22:49;;;;;;;41.10;7.05;;;13.40;99.90;;;;;;5051618;28;20251;-47
2023/11/19 12:25:22;;;;;;;38.88;6.00;;;13.50;99.90;;;;;;5057826;28;20552;-45
2023/11/19 12:27:50;;;;;;;41.20;6.07;;;13.60;99.90;;;;;;5058009;28;20187;-43
2023/11/19 12:30:26;;;;;;;36.80;6.22;;;13.70;99.90;;;;;;5052842;28;20651;-46
2023/11/19 12:32:56;;;;;;;38.13;6.32;;;13.80;99.90;;;;;;5057390;28;20629;-47
2023/11/19 12:35:23;;;;;;;45.97;6.68;;;13.80;99.90;;;;;;5053160;28;20681;-46
2023/11/19 12:37:51;;;;;;;32.67;6.07;;;13.90;99.90;;;;;;5056993;28;20174;-47